sensor_id;sensor_type;location;lat;lon;timestamp;P1;durP1;ratioP1;P2;durP2;ratioP2
44145;SDS011;29809;52.432;4.780;2023-08-06T00:00:37;2.78;;;2.50;;
44145;SDS011;29809;52.432;4.780;2023-08-06T00:03:02;2.00;;;1.80;;
44145;SDS011;29809;52.432;4.780;2023-08-06T00:05:27;3.47;;;2.22;;
44145;SDS011;29809;52.432;4.780;2023-08-06T00:07:53;2.50;;;2.28;;
44145;SDS011;29809;52.432;4.780;2023-08-06T00:10:18;1.60;;;1.50;;
44145;SDS011;29809;52.432;4.780;2023-08-06T00:12:43;2.30;;;1.90;;
44145;SDS011;29809;52.432;4.780;2023-08-06T00:15:09;1.92;;;1.83;;
44145;SDS011;29809;52.432;4.780;2023-08-06T00:17:34;2.22;;;2.03;;
44145;SDS011;29809;52.432;4.780;2023-08-06T00:20:00;2.95;;;1.90;;
44145;SDS011;29809;52.432;4.780;2023-08-06T00:22:36;2.22;;;1.90;;
44145;SDS011;29809;52.432;4.780;2023-08-06T00:25:02;1.70;;;1.60;;
44145;SDS011;29809;52.432;4.780;2023-08-06T00:27:28;1.95;;;1.77;;
44145;SDS011;29809;52.432;4.780;2023-08-06T00:29:53;1.98;;;1.73;;
44145;SDS011;29809;52.432;4.780;2023-08-06T00:32:19;3.28;;;1.30;;
44145;SDS011;29809;52.432;4.780;2023-08-06T00:34:44;2.38;;;1.77;;
44145;SDS011;29809;52.432;4.780;2023-08-06T00:37:09;1.48;;;1.38;;
44145;SDS011;29809;52.432;4.780;2023-08-06T00:39:34;2.08;;;1.70;;
44145;SDS011;29809;52.432;4.780;2023-08-06T00:42:00;1.90;;;1.70;;
44145;SDS011;29809;52.432;4.780;2023-08-06T00:44:25;1.60;;;1.42;;
44145;SDS011;29809;52.432;4.780;2023-08-06T00:46:50;1.63;;;1.52;;
44145;SDS011;29809;52.432;4.780;2023-08-06T00:49:16;1.98;;;1.75;;
44145;SDS011;29809;52.432;4.780;2023-08-06T00:51:41;2.40;;;1.70;;
44145;SDS011;29809;52.432;4.780;2023-08-06T00:54:07;2.05;;;1.90;;
44145;SDS011;29809;52.432;4.780;2023-08-06T00:56:33;2.42;;;2.22;;
44145;SDS011;29809;52.432;4.780;2023-08-06T00:59:00;2.17;;;1.98;;
44145;SDS011;29809;52.432;4.780;2023-08-06T01:01:26;2.33;;;2.13;;
44145;SDS011;29809;52.432;4.780;2023-08-06T01:03:51;3.25;;;1.70;;
44145;SDS011;29809;52.432;4.780;2023-08-06T01:06:16;4.15;;;2.75;;
44145;SDS011;29809;52.432;4.780;2023-08-06T01:13:54;2.45;;;2.25;;
44145;SDS011;29809;52.432;4.780;2023-08-06T01:16:21;2.65;;;2.10;;
44145;SDS011;29809;52.432;4.780;2023-08-06T01:18:48;4.43;;;2.70;;
44145;SDS011;29809;52.432;4.780;2023-08-06T01:21:16;2.50;;;2.30;;
44145;SDS011;29809;52.432;4.780;2023-08-06T01:23:42;2.22;;;2.03;;
44145;SDS011;29809;52.432;4.780;2023-08-06T01:26:12;2.65;;;2.25;;
44145;SDS011;29809;52.432;4.780;2023-08-06T01:28:52;2.45;;;2.25;;
44145;SDS011;29809;52.432;4.780;2023-08-06T01:31:24;5.38;;;2.25;;
44145;SDS011;29809;52.432;4.780;2023-08-06T01:33:49;3.15;;;2.95;;
44145;SDS011;29809;52.432;4.780;2023-08-06T01:36:15;2.70;;;2.50;;
44145;SDS011;29809;52.432;4.780;2023-08-06T01:38:41;2.22;;;2.03;;
44145;SDS011;29809;52.432;4.780;2023-08-06T01:41:06;2.20;;;2.00;;
44145;SDS011;29809;52.432;4.780;2023-08-06T01:43:32;2.00;;;1.90;;
44145;SDS011;29809;52.432;4.780;2023-08-06T01:45:57;2.38;;;2.17;;
44145;SDS011;29809;52.432;4.780;2023-08-06T01:48:22;3.30;;;2.58;;
44145;SDS011;29809;52.432;4.780;2023-08-06T01:50:47;2.80;;;2.22;;
44145;SDS011;29809;52.432;4.780;2023-08-06T01:53:13;2.67;;;2.47;;
44145;SDS011;29809;52.432;4.780;2023-08-06T01:55:38;2.47;;;2.20;;
44145;SDS011;29809;52.432;4.780;2023-08-06T01:58:03;4.30;;;2.47;;
44145;SDS011;29809;52.432;4.780;2023-08-06T02:00:28;2.50;;;2.30;;
44145;SDS011;29809;52.432;4.780;2023-08-06T02:02:54;1.98;;;1.88;;
44145;SDS011;29809;52.432;4.780;2023-08-06T02:05:19;2.55;;;2.35;;
44145;SDS011;29809;52.432;4.780;2023-08-06T02:07:44;2.33;;;2.00;;
44145;SDS011;29809;52.432;4.780;2023-08-06T02:10:10;1.80;;;1.70;;
44145;SDS011;29809;52.432;4.780;2023-08-06T02:12:35;2.30;;;2.10;;
44145;SDS011;29809;52.432;4.780;2023-08-06T02:15:00;2.47;;;2.28;;
44145;SDS011;29809;52.432;4.780;2023-08-06T02:17:25;3.00;;;2.70;;
44145;SDS011;29809;52.432;4.780;2023-08-06T02:19:51;2.47;;;2.28;;
44145;SDS011;29809;52.432;4.780;2023-08-06T02:22:16;2.65;;;2.45;;
44145;SDS011;29809;52.432;4.780;2023-08-06T02:24:41;2.70;;;2.50;;
44145;SDS011;29809;52.432;4.780;2023-08-06T02:27:07;2.90;;;2.60;;
44145;SDS011;29809;52.432;4.780;2023-08-06T02:29:32;3.17;;;2.60;;
44145;SDS011;29809;52.432;4.780;2023-08-06T02:31:57;2.88;;;2.67;;
44145;SDS011;29809;52.432;4.780;2023-08-06T02:34:22;2.70;;;2.42;;
44145;SDS011;29809;52.432;4.780;2023-08-06T02:36:47;2.67;;;2.45;;
44145;SDS011;29809;52.432;4.780;2023-08-06T02:39:13;2.80;;;2.50;;
44145;SDS011;29809;52.432;4.780;2023-08-06T02:41:38;3.40;;;2.78;;
44145;SDS011;29809;52.432;4.780;2023-08-06T02:44:03;2.90;;;2.70;;
44145;SDS011;29809;52.432;4.780;2023-08-06T02:46:29;2.58;;;2.38;;
44145;SDS011;29809;52.432;4.780;2023-08-06T02:48:54;3.25;;;2.97;;
44145;SDS011;29809;52.432;4.780;2023-08-06T02:51:19;3.20;;;2.53;;
44145;SDS011;29809;52.432;4.780;2023-08-06T02:53:44;2.67;;;2.47;;
44145;SDS011;29809;52.432;4.780;2023-08-06T02:56:10;2.88;;;2.58;;
44145;SDS011;29809;52.432;4.780;2023-08-06T02:58:35;2.55;;;2.35;;
44145;SDS011;29809;52.432;4.780;2023-08-06T03:03:26;2.58;;;2.25;;
44145;SDS011;29809;52.432;4.780;2023-08-06T03:05:52;2.33;;;2.13;;
44145;SDS011;29809;52.432;4.780;2023-08-06T03:08:18;2.63;;;2.42;;
44145;SDS011;29809;52.432;4.780;2023-08-06T03:10:47;2.95;;;1.80;;
44145;SDS011;29809;52.432;4.780;2023-08-06T03:13:12;2.05;;;1.85;;
44145;SDS011;29809;52.432;4.780;2023-08-06T03:15:37;2.03;;;1.63;;
44145;SDS011;29809;52.432;4.780;2023-08-06T03:18:03;2.58;;;1.70;;
44145;SDS011;29809;52.432;4.780;2023-08-06T03:20:28;2.28;;;1.50;;
44145;SDS011;29809;52.432;4.780;2023-08-06T03:22:53;1.70;;;1.45;;
44145;SDS011;29809;52.432;4.780;2023-08-06T03:25:18;1.52;;;1.20;;
44145;SDS011;29809;52.432;4.780;2023-08-06T03:27:44;2.05;;;1.38;;
44145;SDS011;29809;52.432;4.780;2023-08-06T03:30:09;1.60;;;1.33;;
44145;SDS011;29809;52.432;4.780;2023-08-06T03:32:34;1.70;;;1.50;;
44145;SDS011;29809;52.432;4.780;2023-08-06T03:35:00;3.20;;;1.55;;
44145;SDS011;29809;52.432;4.780;2023-08-06T03:37:25;1.98;;;1.23;;
44145;SDS011;29809;52.432;4.780;2023-08-06T03:39:50;1.35;;;1.10;;
44145;SDS011;29809;52.432;4.780;2023-08-06T03:42:15;1.67;;;1.38;;
44145;SDS011;29809;52.432;4.780;2023-08-06T03:44:41;0.90;;;0.90;;
44145;SDS011;29809;52.432;4.780;2023-08-06T03:47:06;1.67;;;1.27;;
44145;SDS011;29809;52.432;4.780;2023-08-06T03:49:31;0.93;;;0.80;;
44145;SDS011;29809;52.432;4.780;2023-08-06T03:51:56;6.78;;;1.13;;
44145;SDS011;29809;52.432;4.780;2023-08-06T03:54:22;2.20;;;0.90;;
44145;SDS011;29809;52.432;4.780;2023-08-06T03:56:47;1.33;;;1.00;;
44145;SDS011;29809;52.432;4.780;2023-08-06T03:59:12;1.23;;;1.00;;
44145;SDS011;29809;52.432;4.780;2023-08-06T04:01:37;1.48;;;0.98;;
44145;SDS011;29809;52.432;4.780;2023-08-06T04:04:03;1.38;;;0.80;;
44145;SDS011;29809;52.432;4.780;2023-08-06T04:06:28;1.35;;;0.93;;
44145;SDS011;29809;52.432;4.780;2023-08-06T04:08:53;0.70;;;0.70;;
44145;SDS011;29809;52.432;4.780;2023-08-06T04:11:19;0.98;;;0.70;;
44145;SDS011;29809;52.432;4.780;2023-08-06T04:13:44;1.25;;;0.80;;
44145;SDS011;29809;52.432;4.780;2023-08-06T04:16:09;0.75;;;0.75;;
44145;SDS011;29809;52.432;4.780;2023-08-06T04:18:34;1.10;;;1.00;;
44145;SDS011;29809;52.432;4.780;2023-08-06T04:21:01;0.90;;;0.70;;
44145;SDS011;29809;52.432;4.780;2023-08-06T04:23:26;2.10;;;0.70;;
44145;SDS011;29809;52.432;4.780;2023-08-06T04:25:52;0.88;;;0.80;;
44145;SDS011;29809;52.432;4.780;2023-08-06T04:28:17;1.10;;;0.80;;
44145;SDS011;29809;52.432;4.780;2023-08-06T04:30:42;0.80;;;0.80;;
44145;SDS011;29809;52.432;4.780;2023-08-06T04:33:07;1.20;;;1.10;;
44145;SDS011;29809;52.432;4.780;2023-08-06T04:35:33;0.88;;;0.75;;
44145;SDS011;29809;52.432;4.780;2023-08-06T04:37:58;6.57;;;1.70;;
44145;SDS011;29809;52.432;4.780;2023-08-06T04:40:23;0.98;;;0.80;;
44145;SDS011;29809;52.432;4.780;2023-08-06T04:42:48;1.10;;;0.80;;
44145;SDS011;29809;52.432;4.780;2023-08-06T04:45:14;1.67;;;0.80;;
44145;SDS011;29809;52.432;4.780;2023-08-06T04:47:39;0.95;;;0.60;;
44145;SDS011;29809;52.432;4.780;2023-08-06T04:50:04;1.25;;;0.90;;
44145;SDS011;29809;52.432;4.780;2023-08-06T04:52:30;1.80;;;0.82;;
44145;SDS011;29809;52.432;4.780;2023-08-06T04:54:57;0.80;;;0.80;;
44145;SDS011;29809;52.432;4.780;2023-08-06T04:57:22;2.75;;;1.13;;
44145;SDS011;29809;52.432;4.780;2023-08-06T04:59:48;1.60;;;1.50;;
44145;SDS011;29809;52.432;4.780;2023-08-06T05:02:13;1.20;;;1.10;;
44145;SDS011;29809;52.432;4.780;2023-08-06T05:04:39;3.17;;;1.25;;
44145;SDS011;29809;52.432;4.780;2023-08-06T05:07:05;1.65;;;1.48;;
44145;SDS011;29809;52.432;4.780;2023-08-06T05:09:30;1.52;;;1.35;;
44145;SDS011;29809;52.432;4.780;2023-08-06T05:11:56;2.30;;;1.65;;
44145;SDS011;29809;52.432;4.780;2023-08-06T05:14:21;3.92;;;1.40;;
44145;SDS011;29809;52.432;4.780;2023-08-06T05:16:46;1.50;;;1.40;;
44145;SDS011;29809;52.432;4.780;2023-08-06T05:19:11;1.58;;;1.48;;
44145;SDS011;29809;52.432;4.780;2023-08-06T05:21:37;2.50;;;1.80;;
44145;SDS011;29809;52.432;4.780;2023-08-06T05:24:02;1.75;;;1.65;;
44145;SDS011;29809;52.432;4.780;2023-08-06T05:26:27;3.80;;;1.80;;
44145;SDS011;29809;52.432;4.780;2023-08-06T05:28:53;2.60;;;1.95;;
44145;SDS011;29809;52.432;4.780;2023-08-06T05:31:18;3.17;;;1.77;;
44145;SDS011;29809;52.432;4.780;2023-08-06T05:33:43;2.20;;;1.80;;
44145;SDS011;29809;52.432;4.780;2023-08-06T05:36:08;4.00;;;2.10;;
44145;SDS011;29809;52.432;4.780;2023-08-06T05:38:34;4.53;;;2.25;;
44145;SDS011;29809;52.432;4.780;2023-08-06T05:40:59;2.50;;;1.92;;
44145;SDS011;29809;52.432;4.780;2023-08-06T05:43:24;3.80;;;2.13;;
44145;SDS011;29809;52.432;4.780;2023-08-06T05:45:50;2.55;;;2.03;;
44145;SDS011;29809;52.432;4.780;2023-08-06T05:48:15;1.95;;;1.85;;
44145;SDS011;29809;52.432;4.780;2023-08-06T05:50:40;2.30;;;2.10;;
44145;SDS011;29809;52.432;4.780;2023-08-06T05:53:06;2.20;;;1.92;;
44145;SDS011;29809;52.432;4.780;2023-08-06T05:55:31;2.50;;;2.30;;
44145;SDS011;29809;52.432;4.780;2023-08-06T05:57:57;2.83;;;1.90;;
44145;SDS011;29809;52.432;4.780;2023-08-06T06:00:23;2.00;;;1.80;;
44145;SDS011;29809;52.432;4.780;2023-08-06T06:02:48;2.30;;;2.10;;
44145;SDS011;29809;52.432;4.780;2023-08-06T06:05:14;2.97;;;2.10;;
44145;SDS011;29809;52.432;4.780;2023-08-06T06:07:39;3.10;;;2.30;;
44145;SDS011;29809;52.432;4.780;2023-08-06T06:10:04;2.40;;;2.20;;
44145;SDS011;29809;52.432;4.780;2023-08-06T06:12:30;2.53;;;2.33;;
44145;SDS011;29809;52.432;4.780;2023-08-06T06:14:55;2.42;;;2.05;;
44145;SDS011;29809;52.432;4.780;2023-08-06T06:17:21;1.98;;;1.88;;
44145;SDS011;29809;52.432;4.780;2023-08-06T06:19:46;3.03;;;2.40;;
44145;SDS011;29809;52.432;4.780;2023-08-06T06:22:11;2.22;;;1.70;;
44145;SDS011;29809;52.432;4.780;2023-08-06T06:24:37;2.20;;;2.00;;
44145;SDS011;29809;52.432;4.780;2023-08-06T06:27:02;1.70;;;1.60;;
44145;SDS011;29809;52.432;4.780;2023-08-06T06:29:27;2.35;;;1.80;;
44145;SDS011;29809;52.432;4.780;2023-08-06T06:31:52;4.35;;;2.13;;
44145;SDS011;29809;52.432;4.780;2023-08-06T06:34:18;2.83;;;2.00;;
44145;SDS011;29809;52.432;4.780;2023-08-06T06:36:43;1.88;;;1.77;;
44145;SDS011;29809;52.432;4.780;2023-08-06T06:39:08;3.22;;;1.80;;
44145;SDS011;29809;52.432;4.780;2023-08-06T06:41:33;2.42;;;2.20;;
44145;SDS011;29809;52.432;4.780;2023-08-06T06:43:59;2.47;;;1.85;;
44145;SDS011;29809;52.432;4.780;2023-08-06T06:46:24;2.28;;;2.00;;
44145;SDS011;29809;52.432;4.780;2023-08-06T06:48:49;1.98;;;1.80;;
44145;SDS011;29809;52.432;4.780;2023-08-06T06:51:14;1.75;;;1.65;;
44145;SDS011;29809;52.432;4.780;2023-08-06T06:53:40;38.03;;;9.65;;
44145;SDS011;29809;52.432;4.780;2023-08-06T06:56:05;20.08;;;7.30;;
44145;SDS011;29809;52.432;4.780;2023-08-06T06:58:31;37.33;;;11.10;;
44145;SDS011;29809;52.432;4.780;2023-08-06T07:00:56;28.67;;;11.10;;
44145;SDS011;29809;52.432;4.780;2023-08-06T07:03:21;28.38;;;10.65;;
44145;SDS011;29809;52.432;4.780;2023-08-06T07:05:47;22.98;;;8.82;;
44145;SDS011;29809;52.432;4.780;2023-08-06T07:08:12;20.85;;;8.15;;
44145;SDS011;29809;52.432;4.780;2023-08-06T07:10:38;17.13;;;7.38;;
44145;SDS011;29809;52.432;4.780;2023-08-06T07:13:03;18.08;;;6.40;;
44145;SDS011;29809;52.432;4.780;2023-08-06T07:15:28;14.25;;;6.07;;
44145;SDS011;29809;52.432;4.780;2023-08-06T07:17:54;14.45;;;5.60;;
44145;SDS011;29809;52.432;4.780;2023-08-06T07:20:19;13.93;;;5.63;;
44145;SDS011;29809;52.432;4.780;2023-08-06T07:22:45;20.58;;;4.28;;
44145;SDS011;29809;52.432;4.780;2023-08-06T07:25:10;7.88;;;4.25;;
44145;SDS011;29809;52.432;4.780;2023-08-06T07:27:35;14.20;;;4.68;;
44145;SDS011;29809;52.432;4.780;2023-08-06T07:30:01;10.68;;;3.80;;
44145;SDS011;29809;52.432;4.780;2023-08-06T07:32:26;6.18;;;3.63;;
44145;SDS011;29809;52.432;4.780;2023-08-06T07:34:52;6.28;;;3.28;;
44145;SDS011;29809;52.432;4.780;2023-08-06T07:37:22;4.50;;;3.13;;
44145;SDS011;29809;52.432;4.780;2023-08-06T07:39:47;7.53;;;2.60;;
44145;SDS011;29809;52.432;4.780;2023-08-06T07:42:12;6.28;;;2.80;;
44145;SDS011;29809;52.432;4.780;2023-08-06T07:44:37;5.50;;;2.13;;
44145;SDS011;29809;52.432;4.780;2023-08-06T07:47:03;3.30;;;2.25;;
44145;SDS011;29809;52.432;4.780;2023-08-06T07:49:28;2.85;;;2.22;;
44145;SDS011;29809;52.432;4.780;2023-08-06T07:51:53;4.38;;;2.08;;
44145;SDS011;29809;52.432;4.780;2023-08-06T07:54:19;2.33;;;2.10;;
44145;SDS011;29809;52.432;4.780;2023-08-06T07:56:44;2.70;;;1.98;;
44145;SDS011;29809;52.432;4.780;2023-08-06T07:59:09;4.63;;;2.70;;
44145;SDS011;29809;52.432;4.780;2023-08-06T08:01:35;6.20;;;3.13;;
44145;SDS011;29809;52.432;4.780;2023-08-06T08:04:00;3.63;;;1.70;;
44145;SDS011;29809;52.432;4.780;2023-08-06T08:06:25;2.28;;;2.00;;
44145;SDS011;29809;52.432;4.780;2023-08-06T08:08:50;2.40;;;1.73;;
44145;SDS011;29809;52.432;4.780;2023-08-06T08:11:16;3.53;;;2.00;;
44145;SDS011;29809;52.432;4.780;2023-08-06T08:13:42;2.13;;;1.80;;
44145;SDS011;29809;52.432;4.780;2023-08-06T08:16:08;2.35;;;1.83;;
44145;SDS011;29809;52.432;4.780;2023-08-06T08:18:33;3.92;;;1.60;;
44145;SDS011;29809;52.432;4.780;2023-08-06T08:20:58;2.65;;;1.80;;
44145;SDS011;29809;52.432;4.780;2023-08-06T08:23:23;2.20;;;1.70;;
44145;SDS011;29809;52.432;4.780;2023-08-06T08:25:49;5.78;;;2.13;;
44145;SDS011;29809;52.432;4.780;2023-08-06T08:28:14;3.20;;;1.73;;
44145;SDS011;29809;52.432;4.780;2023-08-06T08:30:42;3.08;;;1.80;;
44145;SDS011;29809;52.432;4.780;2023-08-06T08:33:08;2.90;;;2.10;;
44145;SDS011;29809;52.432;4.780;2023-08-06T08:35:33;3.45;;;2.13;;
44145;SDS011;29809;52.432;4.780;2023-08-06T08:37:58;4.18;;;1.77;;
44145;SDS011;29809;52.432;4.780;2023-08-06T08:40:24;1.85;;;1.65;;
44145;SDS011;29809;52.432;4.780;2023-08-06T08:42:53;2.53;;;1.95;;
44145;SDS011;29809;52.432;4.780;2023-08-06T08:45:18;2.90;;;1.83;;
44145;SDS011;29809;52.432;4.780;2023-08-06T08:47:45;2.10;;;1.50;;
44145;SDS011;29809;52.432;4.780;2023-08-06T08:50:12;2.67;;;1.67;;
44145;SDS011;29809;52.432;4.780;2023-08-06T08:52:39;2.88;;;1.73;;
44145;SDS011;29809;52.432;4.780;2023-08-06T08:55:06;3.13;;;1.95;;
44145;SDS011;29809;52.432;4.780;2023-08-06T08:57:31;2.58;;;1.80;;
44145;SDS011;29809;52.432;4.780;2023-08-06T08:59:57;3.92;;;2.13;;
44145;SDS011;29809;52.432;4.780;2023-08-06T09:02:22;2.08;;;1.75;;
44145;SDS011;29809;52.432;4.780;2023-08-06T09:04:48;2.88;;;1.75;;
44145;SDS011;29809;52.432;4.780;2023-08-06T09:07:16;2.80;;;1.90;;
44145;SDS011;29809;52.432;4.780;2023-08-06T09:09:42;4.65;;;1.70;;
44145;SDS011;29809;52.432;4.780;2023-08-06T09:12:12;1.83;;;1.20;;
44145;SDS011;29809;52.432;4.780;2023-08-06T09:14:38;4.03;;;2.03;;
44145;SDS011;29809;52.432;4.780;2023-08-06T09:17:04;2.08;;;1.27;;
44145;SDS011;29809;52.432;4.780;2023-08-06T09:19:31;3.60;;;1.42;;
44145;SDS011;29809;52.432;4.780;2023-08-06T09:21:56;3.30;;;1.45;;
44145;SDS011;29809;52.432;4.780;2023-08-06T09:24:22;2.38;;;1.35;;
44145;SDS011;29809;52.432;4.780;2023-08-06T09:26:47;3.28;;;1.20;;
44145;SDS011;29809;52.432;4.780;2023-08-06T09:29:12;2.28;;;1.20;;
44145;SDS011;29809;52.432;4.780;2023-08-06T09:34:10;3.13;;;1.17;;
44145;SDS011;29809;52.432;4.780;2023-08-06T09:36:38;3.50;;;1.10;;
44145;SDS011;29809;52.432;4.780;2023-08-06T09:39:11;2.17;;;0.95;;
44145;SDS011;29809;52.432;4.780;2023-08-06T09:41:37;3.25;;;0.95;;
44145;SDS011;29809;52.432;4.780;2023-08-06T09:44:02;1.17;;;1.00;;
44145;SDS011;29809;52.432;4.780;2023-08-06T09:46:28;1.95;;;1.00;;
44145;SDS011;29809;52.432;4.780;2023-08-06T09:48:53;0.60;;;0.60;;
44145;SDS011;29809;52.432;4.780;2023-08-06T09:51:18;1.88;;;1.00;;
44145;SDS011;29809;52.432;4.780;2023-08-06T09:53:44;1.00;;;0.57;;
44145;SDS011;29809;52.432;4.780;2023-08-06T09:56:10;0.90;;;0.60;;
44145;SDS011;29809;52.432;4.780;2023-08-06T09:58:36;2.05;;;0.90;;
44145;SDS011;29809;52.432;4.780;2023-08-06T10:01:01;1.88;;;1.02;;
44145;SDS011;29809;52.432;4.780;2023-08-06T10:03:28;1.42;;;0.80;;
44145;SDS011;29809;52.432;4.780;2023-08-06T10:05:55;0.73;;;0.73;;
44145;SDS011;29809;52.432;4.780;2023-08-06T10:08:20;2.25;;;0.80;;
44145;SDS011;29809;52.432;4.780;2023-08-06T10:10:45;3.13;;;0.98;;
44145;SDS011;29809;52.432;4.780;2023-08-06T10:13:11;1.20;;;0.90;;
44145;SDS011;29809;52.432;4.780;2023-08-06T10:15:37;3.17;;;1.02;;
44145;SDS011;29809;52.432;4.780;2023-08-06T10:18:03;1.60;;;0.82;;
44145;SDS011;29809;52.432;4.780;2023-08-06T10:20:35;1.42;;;0.60;;
44145;SDS011;29809;52.432;4.780;2023-08-06T10:23:04;1.70;;;0.63;;
44145;SDS011;29809;52.432;4.780;2023-08-06T10:25:33;1.45;;;0.90;;
44145;SDS011;29809;52.432;4.780;2023-08-06T10:27:59;1.85;;;0.70;;
44145;SDS011;29809;52.432;4.780;2023-08-06T10:30:29;0.82;;;0.70;;
44145;SDS011;29809;52.432;4.780;2023-08-06T10:32:55;1.25;;;0.68;;
44145;SDS011;29809;52.432;4.780;2023-08-06T10:35:41;1.00;;;0.88;;
44145;SDS011;29809;52.432;4.780;2023-08-06T10:38:13;1.17;;;0.80;;
44145;SDS011;29809;52.432;4.780;2023-08-06T10:40:40;2.83;;;0.90;;
44145;SDS011;29809;52.432;4.780;2023-08-06T10:43:06;0.93;;;0.65;;
44145;SDS011;29809;52.432;4.780;2023-08-06T10:45:36;1.95;;;1.20;;
44145;SDS011;29809;52.432;4.780;2023-08-06T10:48:02;1.05;;;0.77;;
44145;SDS011;29809;52.432;4.780;2023-08-06T10:50:27;2.05;;;0.90;;
44145;SDS011;29809;52.432;4.780;2023-08-06T10:52:52;0.70;;;0.70;;
44145;SDS011;29809;52.432;4.780;2023-08-06T10:55:24;2.35;;;0.90;;
44145;SDS011;29809;52.432;4.780;2023-08-06T10:57:50;0.90;;;0.90;;
44145;SDS011;29809;52.432;4.780;2023-08-06T11:00:16;2.65;;;1.00;;
44145;SDS011;29809;52.432;4.780;2023-08-06T11:02:41;2.08;;;1.15;;
44145;SDS011;29809;52.432;4.780;2023-08-06T11:05:07;3.42;;;0.98;;
44145;SDS011;29809;52.432;4.780;2023-08-06T11:07:32;1.92;;;0.80;;
44145;SDS011;29809;52.432;4.780;2023-08-06T11:10:04;2.78;;;1.10;;
44145;SDS011;29809;52.432;4.780;2023-08-06T11:12:31;1.30;;;0.98;;
44145;SDS011;29809;52.432;4.780;2023-08-06T11:14:56;2.90;;;1.20;;
44145;SDS011;29809;52.432;4.780;2023-08-06T11:17:21;1.77;;;1.10;;
44145;SDS011;29809;52.432;4.780;2023-08-06T11:19:46;2.17;;;1.30;;
44145;SDS011;29809;52.432;4.780;2023-08-06T11:22:12;2.22;;;1.25;;
44145;SDS011;29809;52.432;4.780;2023-08-06T11:24:37;2.75;;;1.23;;
44145;SDS011;29809;52.432;4.780;2023-08-06T11:27:10;1.95;;;1.65;;
44145;SDS011;29809;52.432;4.780;2023-08-06T11:29:37;1.80;;;1.23;;
44145;SDS011;29809;52.432;4.780;2023-08-06T11:32:05;2.85;;;1.50;;
44145;SDS011;29809;52.432;4.780;2023-08-06T11:34:31;2.17;;;1.60;;
44145;SDS011;29809;52.432;4.780;2023-08-06T11:36:56;3.10;;;1.38;;
44145;SDS011;29809;52.432;4.780;2023-08-06T11:39:22;2.28;;;1.40;;
44145;SDS011;29809;52.432;4.780;2023-08-06T11:41:47;2.45;;;1.60;;
44145;SDS011;29809;52.432;4.780;2023-08-06T11:44:13;2.03;;;1.40;;
44145;SDS011;29809;52.432;4.780;2023-08-06T11:46:55;2.25;;;1.20;;
44145;SDS011;29809;52.432;4.780;2023-08-06T11:49:40;3.63;;;1.73;;
44145;SDS011;29809;52.432;4.780;2023-08-06T11:52:16;2.40;;;1.10;;
44145;SDS011;29809;52.432;4.780;2023-08-06T11:54:44;3.60;;;1.42;;
44145;SDS011;29809;52.432;4.780;2023-08-06T11:57:10;1.77;;;1.20;;
44145;SDS011;29809;52.432;4.780;2023-08-06T11:59:36;3.60;;;1.10;;
44145;SDS011;29809;52.432;4.780;2023-08-06T12:02:02;1.33;;;1.00;;
44145;SDS011;29809;52.432;4.780;2023-08-06T12:04:28;2.30;;;1.20;;
44145;SDS011;29809;52.432;4.780;2023-08-06T12:06:53;1.20;;;1.10;;
44145;SDS011;29809;52.432;4.780;2023-08-06T12:09:18;1.17;;;1.00;;
44145;SDS011;29809;52.432;4.780;2023-08-06T12:11:43;2.65;;;0.93;;
44145;SDS011;29809;52.432;4.780;2023-08-06T12:14:09;0.82;;;0.80;;
44145;SDS011;29809;52.432;4.780;2023-08-06T12:16:34;1.63;;;0.90;;
44145;SDS011;29809;52.432;4.780;2023-08-06T12:19:01;1.67;;;1.35;;
44145;SDS011;29809;52.432;4.780;2023-08-06T12:21:26;2.80;;;1.70;;
44145;SDS011;29809;52.432;4.780;2023-08-06T12:23:51;4.28;;;2.85;;
44145;SDS011;29809;52.432;4.780;2023-08-06T12:26:16;3.90;;;2.35;;
44145;SDS011;29809;52.432;4.780;2023-08-06T12:28:42;4.20;;;2.92;;
44145;SDS011;29809;52.432;4.780;2023-08-06T12:31:07;2.67;;;2.00;;
44145;SDS011;29809;52.432;4.780;2023-08-06T12:33:32;3.38;;;2.15;;
44145;SDS011;29809;52.432;4.780;2023-08-06T12:35:57;4.07;;;1.85;;
44145;SDS011;29809;52.432;4.780;2023-08-06T12:38:23;2.13;;;1.60;;
44145;SDS011;29809;52.432;4.780;2023-08-06T12:40:48;2.78;;;1.58;;
44145;SDS011;29809;52.432;4.780;2023-08-06T12:43:13;3.90;;;1.50;;
44145;SDS011;29809;52.432;4.780;2023-08-06T12:45:39;1.25;;;0.88;;
44145;SDS011;29809;52.432;4.780;2023-08-06T12:48:04;4.68;;;1.20;;
44145;SDS011;29809;52.432;4.780;2023-08-06T12:50:29;1.20;;;1.10;;
44145;SDS011;29809;52.432;4.780;2023-08-06T12:52:55;1.60;;;1.17;;
44145;SDS011;29809;52.432;4.780;2023-08-06T12:55:20;1.65;;;0.85;;
44145;SDS011;29809;52.432;4.780;2023-08-06T12:57:45;1.55;;;1.10;;
44145;SDS011;29809;52.432;4.780;2023-08-06T13:00:10;2.38;;;1.08;;
44145;SDS011;29809;52.432;4.780;2023-08-06T13:02:36;3.67;;;1.08;;
44145;SDS011;29809;52.432;4.780;2023-08-06T13:05:01;4.65;;;1.25;;
44145;SDS011;29809;52.432;4.780;2023-08-06T13:07:30;4.25;;;1.48;;
44145;SDS011;29809;52.432;4.780;2023-08-06T13:09:55;1.17;;;0.90;;
44145;SDS011;29809;52.432;4.780;2023-08-06T13:12:20;1.60;;;1.50;;
44145;SDS011;29809;52.432;4.780;2023-08-06T13:14:48;4.38;;;3.97;;
44145;SDS011;29809;52.432;4.780;2023-08-06T13:17:13;4.50;;;3.83;;
44145;SDS011;29809;52.432;4.780;2023-08-06T13:19:38;4.50;;;3.22;;
44145;SDS011;29809;52.432;4.780;2023-08-06T13:22:03;4.63;;;3.13;;
44145;SDS011;29809;52.432;4.780;2023-08-06T13:24:30;2.70;;;2.20;;
44145;SDS011;29809;52.432;4.780;2023-08-06T13:26:56;2.17;;;1.98;;
44145;SDS011;29809;52.432;4.780;2023-08-06T13:29:21;2.92;;;2.50;;
44145;SDS011;29809;52.432;4.780;2023-08-06T13:31:46;4.05;;;1.95;;
44145;SDS011;29809;52.432;4.780;2023-08-06T13:34:12;2.42;;;1.52;;
44145;SDS011;29809;52.432;4.780;2023-08-06T13:36:37;2.63;;;1.42;;
44145;SDS011;29809;52.432;4.780;2023-08-06T13:39:02;1.95;;;1.70;;
44145;SDS011;29809;52.432;4.780;2023-08-06T13:41:29;1.30;;;1.15;;
44145;SDS011;29809;52.432;4.780;2023-08-06T13:43:55;2.85;;;1.23;;
44145;SDS011;29809;52.432;4.780;2023-08-06T13:46:20;1.13;;;0.88;;
44145;SDS011;29809;52.432;4.780;2023-08-06T13:48:46;0.80;;;0.80;;
44145;SDS011;29809;52.432;4.780;2023-08-06T13:51:12;3.80;;;0.90;;
44145;SDS011;29809;52.432;4.780;2023-08-06T13:53:38;1.77;;;0.85;;
44145;SDS011;29809;52.432;4.780;2023-08-06T13:56:04;3.47;;;1.50;;
44145;SDS011;29809;52.432;4.780;2023-08-06T13:58:29;3.40;;;1.80;;
44145;SDS011;29809;52.432;4.780;2023-08-06T14:00:55;4.63;;;1.98;;
44145;SDS011;29809;52.432;4.780;2023-08-06T14:03:21;2.83;;;2.10;;
44145;SDS011;29809;52.432;4.780;2023-08-06T14:05:46;6.60;;;2.53;;
44145;SDS011;29809;52.432;4.780;2023-08-06T14:08:13;6.60;;;2.47;;
44145;SDS011;29809;52.432;4.780;2023-08-06T14:10:38;4.38;;;2.28;;
44145;SDS011;29809;52.432;4.780;2023-08-06T14:13:04;8.65;;;2.47;;
44145;SDS011;29809;52.432;4.780;2023-08-06T14:15:29;4.18;;;1.80;;
44145;SDS011;29809;52.432;4.780;2023-08-06T14:17:54;5.10;;;1.48;;
44145;SDS011;29809;52.432;4.780;2023-08-06T14:20:19;8.43;;;2.83;;
44145;SDS011;29809;52.432;4.780;2023-08-06T14:22:45;6.45;;;1.55;;
44145;SDS011;29809;52.432;4.780;2023-08-06T14:25:10;4.20;;;1.85;;
44145;SDS011;29809;52.432;4.780;2023-08-06T14:27:35;4.10;;;1.23;;
44145;SDS011;29809;52.432;4.780;2023-08-06T14:30:01;4.90;;;1.58;;
44145;SDS011;29809;52.432;4.780;2023-08-06T14:32:28;4.40;;;1.48;;
44145;SDS011;29809;52.432;4.780;2023-08-06T14:34:53;2.88;;;1.35;;
44145;SDS011;29809;52.432;4.780;2023-08-06T14:37:18;3.40;;;1.33;;
44145;SDS011;29809;52.432;4.780;2023-08-06T14:39:43;3.70;;;0.80;;
44145;SDS011;29809;52.432;4.780;2023-08-06T14:42:09;2.28;;;1.00;;
44145;SDS011;29809;52.432;4.780;2023-08-06T14:44:34;2.17;;;0.80;;
44145;SDS011;29809;52.432;4.780;2023-08-06T14:46:59;2.80;;;0.88;;
44145;SDS011;29809;52.432;4.780;2023-08-06T14:49:24;3.78;;;1.10;;